sensor_id;sensor_type;location;lat;lon;timestamp;temperature;humidity
7002;DHT22;3541;53.230;10.518;2024-01-15T00:02:26;1.80;99.90
7002;DHT22;3541;53.230;10.518;2024-01-15T00:04:52;1.80;99.90
7002;DHT22;3541;53.230;10.518;2024-01-15T00:07:19;1.70;99.90
7002;DHT22;3541;53.230;10.518;2024-01-15T00:09:46;1.70;99.90
7002;DHT22;3541;53.230;10.518;2024-01-15T00:12:12;1.80;99.90
7002;DHT22;3541;53.230;10.518;2024-01-15T00:14:39;1.70;99.90
7002;DHT22;3541;53.230;10.518;2024-01-15T00:17:05;1.70;99.90
7002;DHT22;3541;53.230;10.518;2024-01-15T00:19:33;1.70;99.90
7002;DHT22;3541;53.230;10.518;2024-01-15T00:22:00;1.80;99.90
7002;DHT22;3541;53.230;10.518;2024-01-15T00:24:26;1.80;99.90
7002;DHT22;3541;53.230;10.518;2024-01-15T00:26:53;1.70;99.90
7002;DHT22;3541;53.230;10.518;2024-01-15T00:29:20;1.70;99.90
7002;DHT22;3541;53.230;10.518;2024-01-15T00:31:47;1.80;99.90
7002;DHT22;3541;53.230;10.518;2024-01-15T00:34:14;1.70;99.90
7002;DHT22;3541;53.230;10.518;2024-01-15T00:36:42;1.70;99.90
7002;DHT22;3541;53.230;10.518;2024-01-15T00:39:09;1.70;99.90
7002;DHT22;3541;53.230;10.518;2024-01-15T00:41:36;1.70;99.90
7002;DHT22;3541;53.230;10.518;2024-01-15T00:44:02;1.70;99.90
7002;DHT22;3541;53.230;10.518;2024-01-15T00:46:29;1.70;99.90
7002;DHT22;3541;53.230;10.518;2024-01-15T00:48:56;1.80;99.90
7002;DHT22;3541;53.230;10.518;2024-01-15T00:51:22;1.80;99.90
7002;DHT22;3541;53.230;10.518;2024-01-15T00:53:50;1.70;99.90
7002;DHT22;3541;53.230;10.518;2024-01-15T00:56:17;1.80;99.90
7002;DHT22;3541;53.230;10.518;2024-01-15T00:58:43;1.70;99.90
7002;DHT22;3541;53.230;10.518;2024-01-15T01:01:10;1.70;99.90
7002;DHT22;3541;53.230;10.518;2024-01-15T01:03:36;1.60;99.90
7002;DHT22;3541;53.230;10.518;2024-01-15T01:06:03;1.60;99.90
7002;DHT22;3541;53.230;10.518;2024-01-15T01:08:30;1.70;99.90
7002;DHT22;3541;53.230;10.518;2024-01-15T01:10:57;1.60;99.90
7002;DHT22;3541;53.230;10.518;2024-01-15T01:13:24;1.60;99.90
7002;DHT22;3541;53.230;10.518;2024-01-15T01:15:51;1.60;99.90
7002;DHT22;3541;53.230;10.518;2024-01-15T01:18:17;1.60;99.90
7002;DHT22;3541;53.230;10.518;2024-01-15T01:20:44;1.60;99.90
7002;DHT22;3541;53.230;10.518;2024-01-15T01:23:10;1.70;99.90
7002;DHT22;3541;53.230;10.518;2024-01-15T01:25:37;1.70;99.90
7002;DHT22;3541;53.230;10.518;2024-01-15T01:28:05;1.70;99.90
7002;DHT22;3541;53.230;10.518;2024-01-15T01:30:32;1.70;99.90
7002;DHT22;3541;53.230;10.518;2024-01-15T01:32:58;1.70;99.90
7002;DHT22;3541;53.230;10.518;2024-01-15T01:35:25;1.70;99.90
7002;DHT22;3541;53.230;10.518;2024-01-15T01:37:51;1.80;99.90
7002;DHT22;3541;53.230;10.518;2024-01-15T01:40:18;1.80;99.90
7002;DHT22;3541;53.230;10.518;2024-01-15T01:42:44;1.80;99.90
7002;DHT22;3541;53.230;10.518;2024-01-15T01:45:12;1.80;99.90
7002;DHT22;3541;53.230;10.518;2024-01-15T01:47:39;1.80;99.90
7002;DHT22;3541;53.230;10.518;2024-01-15T01:50:06;1.80;99.90
7002;DHT22;3541;53.230;10.518;2024-01-15T01:52:34;1.80;99.90
7002;DHT22;3541;53.230;10.518;2024-01-15T01:55:02;1.80;99.90
7002;DHT22;3541;53.230;10.518;2024-01-15T01:57:31;1.80;99.90
7002;DHT22;3541;53.230;10.518;2024-01-15T01:59:58;1.70;99.90
7002;DHT22;3541;53.230;10.518;2024-01-15T02:02:26;1.70;99.90
7002;DHT22;3541;53.230;10.518;2024-01-15T02:04:53;1.70;99.90
7002;DHT22;3541;53.230;10.518;2024-01-15T02:07:20;1.60;99.90
7002;DHT22;3541;53.230;10.518;2024-01-15T02:09:47;1.70;99.90
7002;DHT22;3541;53.230;10.518;2024-01-15T02:12:13;1.70;99.90
7002;DHT22;3541;53.230;10.518;2024-01-15T02:14:40;1.70;99.90
7002;DHT22;3541;53.230;10.518;2024-01-15T02:17:07;1.70;99.90
7002;DHT22;3541;53.230;10.518;2024-01-15T02:19:35;1.60;99.90
7002;DHT22;3541;53.230;10.518;2024-01-15T02:22:01;1.60;99.90
7002;DHT22;3541;53.230;10.518;2024-01-15T02:24:29;1.60;99.90
7002;DHT22;3541;53.230;10.518;2024-01-15T02:26:56;1.60;99.90
7002;DHT22;3541;53.230;10.518;2024-01-15T02:29:22;1.70;99.90
7002;DHT22;3541;53.230;10.518;2024-01-15T02:31:49;1.70;99.90
7002;DHT22;3541;53.230;10.518;2024-01-15T02:34:15;1.60;99.90
7002;DHT22;3541;53.230;10.518;2024-01-15T02:36:42;1.60;99.90
7002;DHT22;3541;53.230;10.518;2024-01-15T02:39:09;1.60;99.90
7002;DHT22;3541;53.230;10.518;2024-01-15T02:41:37;1.60;99.90
7002;DHT22;3541;53.230;10.518;2024-01-15T02:44:03;1.60;99.90
7002;DHT22;3541;53.230;10.518;2024-01-15T02:46:30;1.60;99.90
7002;DHT22;3541;53.230;10.518;2024-01-15T02:48:57;1.60;99.90
7002;DHT22;3541;53.230;10.518;2024-01-15T02:51:23;1.50;99.90
7002;DHT22;3541;53.230;10.518;2024-01-15T02:53:50;1.50;99.90
7002;DHT22;3541;53.230;10.518;2024-01-15T02:56:16;1.50;99.90
7002;DHT22;3541;53.230;10.518;2024-01-15T02:58:44;1.50;99.90
7002;DHT22;3541;53.230;10.518;2024-01-15T03:01:11;1.50;99.90
7002;DHT22;3541;53.230;10.518;2024-01-15T03:03:37;1.50;99.90
7002;DHT22;3541;53.230;10.518;2024-01-15T03:06:06;1.60;99.90
7002;DHT22;3541;53.230;10.518;2024-01-15T03:08:32;1.50;99.90
7002;DHT22;3541;53.230;10.518;2024-01-15T03:11:00;1.50;99.90
7002;DHT22;3541;53.230;10.518;2024-01-15T03:13:27;1.50;99.90
7002;DHT22;3541;53.230;10.518;2024-01-15T03:15:55;1.60;99.90
7002;DHT22;3541;53.230;10.518;2024-01-15T03:18:21;1.60;99.90
7002;DHT22;3541;53.230;10.518;2024-01-15T03:20:48;1.50;99.90
7002;DHT22;3541;53.230;10.518;2024-01-15T03:23:14;1.50;99.90
7002;DHT22;3541;53.230;10.518;2024-01-15T03:25:41;1.50;99.90
7002;DHT22;3541;53.230;10.518;2024-01-15T03:28:08;1.50;99.90
7002;DHT22;3541;53.230;10.518;2024-01-15T03:30:34;1.50;99.90
7002;DHT22;3541;53.230;10.518;2024-01-15T03:33:02;1.50;99.90
7002;DHT22;3541;53.230;10.518;2024-01-15T03:35:29;1.40;99.90
7002;DHT22;3541;53.230;10.518;2024-01-15T03:37:56;1.40;99.90
7002;DHT22;3541;53.230;10.518;2024-01-15T03:40:22;1.40;99.90
7002;DHT22;3541;53.230;10.518;2024-01-15T03:42:49;1.40;99.90
7002;DHT22;3541;53.230;10.518;2024-01-15T03:45:15;1.40;99.90
7002;DHT22;3541;53.230;10.518;2024-01-15T03:47:42;1.30;99.90
7002;DHT22;3541;53.230;10.518;2024-01-15T03:50:10;1.30;99.90
7002;DHT22;3541;53.230;10.518;2024-01-15T03:52:37;1.30;99.90
7002;DHT22;3541;53.230;10.518;2024-01-15T03:55:05;1.30;99.90
7002;DHT22;3541;53.230;10.518;2024-01-15T03:57:31;1.40;99.90
7002;DHT22;3541;53.230;10.518;2024-01-15T03:59:58;1.40;99.90
7002;DHT22;3541;53.230;10.518;2024-01-15T04:02:24;1.40;99.90
7002;DHT22;3541;53.230;10.518;2024-01-15T04:04:51;1.30;99.90
7002;DHT22;3541;53.230;10.518;2024-01-15T04:07:19;1.30;99.90
7002;DHT22;3541;53.230;10.518;2024-01-15T04:09:46;1.40;99.90
7002;DHT22;3541;53.230;10.518;2024-01-15T04:12:12;1.40;99.90
7002;DHT22;3541;53.230;10.518;2024-01-15T04:14:39;1.40;99.90
7002;DHT22;3541;53.230;10.518;2024-01-15T04:17:06;1.40;99.90
7002;DHT22;3541;53.230;10.518;2024-01-15T04:19:32;1.40;99.90
7002;DHT22;3541;53.230;10.518;2024-01-15T04:21:59;1.40;99.90
7002;DHT22;3541;53.230;10.518;2024-01-15T04:24:27;1.40;99.90
7002;DHT22;3541;53.230;10.518;2024-01-15T04:26:53;1.40;99.90
7002;DHT22;3541;53.230;10.518;2024-01-15T04:29:20;1.40;99.90
7002;DHT22;3541;53.230;10.518;2024-01-15T04:31:46;1.50;99.90
7002;DHT22;3541;53.230;10.518;2024-01-15T04:34:13;1.50;99.90
7002;DHT22;3541;53.230;10.518;2024-01-15T04:36:39;1.50;99.90
7002;DHT22;3541;53.230;10.518;2024-01-15T04:39:06;1.50;99.90
7002;DHT22;3541;53.230;10.518;2024-01-15T04:41:34;1.60;99.90
7002;DHT22;3541;53.230;10.518;2024-01-15T04:44:01;1.60;99.90
7002;DHT22;3541;53.230;10.518;2024-01-15T04:46:28;1.50;99.90
7002;DHT22;3541;53.230;10.518;2024-01-15T04:48:54;1.60;99.90
7002;DHT22;3541;53.230;10.518;2024-01-15T04:51:21;1.60;99.90
7002;DHT22;3541;53.230;10.518;2024-01-15T04:53:47;1.60;99.90
7002;DHT22;3541;53.230;10.518;2024-01-15T04:56:14;1.50;99.90
7002;DHT22;3541;53.230;10.518;2024-01-15T04:58:42;1.50;99.90
7002;DHT22;3541;53.230;10.518;2024-01-15T05:01:08;1.50;99.90
7002;DHT22;3541;53.230;10.518;2024-01-15T05:03:35;1.50;99.90
7002;DHT22;3541;53.230;10.518;2024-01-15T05:06:02;1.50;99.90
7002;DHT22;3541;53.230;10.518;2024-01-15T05:08:29;1.50;99.90
7002;DHT22;3541;53.230;10.518;2024-01-15T05:10:55;1.50;99.90
7002;DHT22;3541;53.230;10.518;2024-01-15T05:13:22;1.50;99.90
7002;DHT22;3541;53.230;10.518;2024-01-15T05:15:50;1.50;99.90
7002;DHT22;3541;53.230;10.518;2024-01-15T05:18:16;1.60;99.90
7002;DHT22;3541;53.230;10.518;2024-01-15T05:20:43;1.60;99.90
7002;DHT22;3541;53.230;10.518;2024-01-15T05:23:10;1.60;99.90
7002;DHT22;3541;53.230;10.518;2024-01-15T05:25:36;1.60;99.90
7002;DHT22;3541;53.230;10.518;2024-01-15T05:28:04;1.60;99.90
7002;DHT22;3541;53.230;10.518;2024-01-15T05:30:30;1.60;99.90
7002;DHT22;3541;53.230;10.518;2024-01-15T05:32:58;1.60;99.90
7002;DHT22;3541;53.230;10.518;2024-01-15T05:35:25;1.60;99.90
7002;DHT22;3541;53.230;10.518;2024-01-15T05:37:52;1.60;99.90
7002;DHT22;3541;53.230;10.518;2024-01-15T05:40:18;1.60;99.90
7002;DHT22;3541;53.230;10.518;2024-01-15T05:42:45;1.60;99.90
7002;DHT22;3541;53.230;10.518;2024-01-15T05:45:11;1.60;99.90
7002;DHT22;3541;53.230;10.518;2024-01-15T05:47:38;1.60;99.90
7002;DHT22;3541;53.230;10.518;2024-01-15T05:50:06;1.50;99.90
7002;DHT22;3541;53.230;10.518;2024-01-15T05:52:33;1.50;99.90
7002;DHT22;3541;53.230;10.518;2024-01-15T05:55:00;1.50;99.90
7002;DHT22;3541;53.230;10.518;2024-01-15T05:57:26;1.50;99.90
7002;DHT22;3541;53.230;10.518;2024-01-15T05:59:53;1.50;99.90
7002;DHT22;3541;53.230;10.518;2024-01-15T06:02:20;1.50;99.90
7002;DHT22;3541;53.230;10.518;2024-01-15T06:04:46;1.50;99.90
7002;DHT22;3541;53.230;10.518;2024-01-15T06:07:14;1.50;99.90
7002;DHT22;3541;53.230;10.518;2024-01-15T06:09:41;1.60;99.90
7002;DHT22;3541;53.230;10.518;2024-01-15T06:12:08;1.60;99.90
7002;DHT22;3541;53.230;10.518;2024-01-15T06:14:34;1.60;99.90
7002;DHT22;3541;53.230;10.518;2024-01-15T06:17:01;1.60;99.90
7002;DHT22;3541;53.230;10.518;2024-01-15T06:19:28;1.60;99.90
7002;DHT22;3541;53.230;10.518;2024-01-15T06:21:54;1.60;99.90
7002;DHT22;3541;53.230;10.518;2024-01-15T06:24:22;1.60;99.90
7002;DHT22;3541;53.230;10.518;2024-01-15T06:26:49;1.60;99.90
7002;DHT22;3541;53.230;10.518;2024-01-15T06:29:15;1.60;99.90
7002;DHT22;3541;53.230;10.518;2024-01-15T06:31:42;1.60;99.90
7002;DHT22;3541;53.230;10.518;2024-01-15T06:34:08;1.60;99.90
7002;DHT22;3541;53.230;10.518;2024-01-15T06:36:35;1.70;99.90
7002;DHT22;3541;53.230;10.518;2024-01-15T06:39:02;1.60;99.90
7002;DHT22;3541;53.230;10.518;2024-01-15T06:41:30;1.70;99.90
7002;DHT22;3541;53.230;10.518;2024-01-15T06:43:56;1.70;99.90
7002;DHT22;3541;53.230;10.518;2024-01-15T06:46:23;1.70;99.90
7002;DHT22;3541;53.230;10.518;2024-01-15T06:48:50;1.70;99.90
7002;DHT22;3541;53.230;10.518;2024-01-15T06:51:16;1.70;99.90
7002;DHT22;3541;53.230;10.518;2024-01-15T06:53:43;1.70;99.90
7002;DHT22;3541;53.230;10.518;2024-01-15T06:56:09;1.70;99.90
7002;DHT22;3541;53.230;10.518;2024-01-15T06:58:37;1.70;99.90
7002;DHT22;3541;53.230;10.518;2024-01-15T07:01:04;1.70;99.90
7002;DHT22;3541;53.230;10.518;2024-01-15T07:03:31;1.70;99.90
7002;DHT22;3541;53.230;10.518;2024-01-15T07:05:58;1.70;99.90
7002;DHT22;3541;53.230;10.518;2024-01-15T07:08:24;1.70;99.90
7002;DHT22;3541;53.230;10.518;2024-01-15T07:10:51;1.70;99.90
7002;DHT22;3541;53.230;10.518;2024-01-15T07:13:18;1.70;99.90
7002;DHT22;3541;53.230;10.518;2024-01-15T07:15:45;1.60;99.90
7002;DHT22;3541;53.230;10.518;2024-01-15T07:18:12;1.60;99.90
7002;DHT22;3541;53.230;10.518;2024-01-15T07:20:39;1.60;99.90
7002;DHT22;3541;53.230;10.518;2024-01-15T07:23:05;1.60;99.90
7002;DHT22;3541;53.230;10.518;2024-01-15T07:25:32;1.60;99.90
7002;DHT22;3541;53.230;10.518;2024-01-15T07:27:59;1.60;99.90
7002;DHT22;3541;53.230;10.518;2024-01-15T07:30:25;1.60;99.90
7002;DHT22;3541;53.230;10.518;2024-01-15T07:32:53;1.60;99.90
7002;DHT22;3541;53.230;10.518;2024-01-15T07:35:20;1.60;99.90
7002;DHT22;3541;53.230;10.518;2024-01-15T07:37:47;1.60;99.90
7002;DHT22;3541;53.230;10.518;2024-01-15T07:40:14;1.60;99.90
7002;DHT22;3541;53.230;10.518;2024-01-15T07:42:40;1.50;99.90
7002;DHT22;3541;53.230;10.518;2024-01-15T07:45:08;1.60;99.90
7002;DHT22;3541;53.230;10.518;2024-01-15T07:47:35;1.60;99.90
7002;DHT22;3541;53.230;10.518;2024-01-15T07:50:03;1.60;99.90
7002;DHT22;3541;53.230;10.518;2024-01-15T07:52:30;1.60;99.90
7002;DHT22;3541;53.230;10.518;2024-01-15T07:54:57;1.60;99.90
7002;DHT22;3541;53.230;10.518;2024-01-15T07:57:25;1.60;99.90
7002;DHT22;3541;53.230;10.518;2024-01-15T07:59:51;1.60;99.90
7002;DHT22;3541;53.230;10.518;2024-01-15T08:02:18;1.60;99.90
7002;DHT22;3541;53.230;10.518;2024-01-15T08:04:44;1.60;99.90
7002;DHT22;3541;53.230;10.518;2024-01-15T08:07:12;1.60;99.90
7002;DHT22;3541;53.230;10.518;2024-01-15T08:09:39;1.60;99.90
7002;DHT22;3541;53.230;10.518;2024-01-15T08:12:06;1.60;99.90
7002;DHT22;3541;53.230;10.518;2024-01-15T08:14:32;1.60;99.90
7002;DHT22;3541;53.230;10.518;2024-01-15T08:16:59;1.70;99.90
7002;DHT22;3541;53.230;10.518;2024-01-15T08:19:26;1.60;99.90
7002;DHT22;3541;53.230;10.518;2024-01-15T08:21:53;1.60;99.90
7002;DHT22;3541;53.230;10.518;2024-01-15T08:24:21;1.60;99.90
7002;DHT22;3541;53.230;10.518;2024-01-15T08:26:47;1.60;99.90
7002;DHT22;3541;53.230;10.518;2024-01-15T08:29:14;1.60;99.90
7002;DHT22;3541;53.230;10.518;2024-01-15T08:31:41;1.60;99.90
7002;DHT22;3541;53.230;10.518;2024-01-15T08:34:07;1.60;99.90
7002;DHT22;3541;53.230;10.518;2024-01-15T08:36:34;1.60;99.90
7002;DHT22;3541;53.230;10.518;2024-01-15T08:39:01;1.50;99.90
7002;DHT22;3541;53.230;10.518;2024-01-15T08:41:31;1.50;99.90
7002;DHT22;3541;53.230;10.518;2024-01-15T08:43:57;1.50;99.90
7002;DHT22;3541;53.230;10.518;2024-01-15T08:46:24;1.50;99.90
7002;DHT22;3541;53.230;10.518;2024-01-15T08:48:50;1.50;99.90
7002;DHT22;3541;53.230;10.518;2024-01-15T08:51:17;1.50;99.90
7002;DHT22;3541;53.230;10.518;2024-01-15T08:53:44;1.50;99.90
7002;DHT22;3541;53.230;10.518;2024-01-15T08:56:10;1.50;99.90
7002;DHT22;3541;53.230;10.518;2024-01-15T08:58:39;1.50;99.90
7002;DHT22;3541;53.230;10.518;2024-01-15T09:01:06;1.50;99.90
7002;DHT22;3541;53.230;10.518;2024-01-15T09:03:32;1.50;99.90
7002;DHT22;3541;53.230;10.518;2024-01-15T09:05:59;1.50;99.90
7002;DHT22;3541;53.230;10.518;2024-01-15T09:08:26;1.50;99.90
7002;DHT22;3541;53.230;10.518;2024-01-15T09:10:53;1.50;99.90
7002;DHT22;3541;53.230;10.518;2024-01-15T09:13:20;1.50;99.90
7002;DHT22;3541;53.230;10.518;2024-01-15T09:15:47;1.50;99.90
7002;DHT22;3541;53.230;10.518;2024-01-15T09:18:14;1.50;99.90
7002;DHT22;3541;53.230;10.518;2024-01-15T09:20:41;1.50;99.90
7002;DHT22;3541;53.230;10.518;2024-01-15T09:23:07;1.50;99.90
7002;DHT22;3541;53.230;10.518;2024-01-15T09:25:34;1.50;99.90
7002;DHT22;3541;53.230;10.518;2024-01-15T09:28:00;1.50;99.90
7002;DHT22;3541;53.230;10.518;2024-01-15T09:30:27;1.40;99.90
7002;DHT22;3541;53.230;10.518;2024-01-15T09:32:55;1.40;99.90
7002;DHT22;3541;53.230;10.518;2024-01-15T09:35:22;1.40;99.90
7002;DHT22;3541;53.230;10.518;2024-01-15T09:37:49;1.40;99.90
7002;DHT22;3541;53.230;10.518;2024-01-15T09:40:15;1.40;99.90
7002;DHT22;3541;53.230;10.518;2024-01-15T09:42:42;1.40;99.90
7002;DHT22;3541;53.230;10.518;2024-01-15T09:45:09;1.40;99.90
7002;DHT22;3541;53.230;10.518;2024-01-15T09:47:35;1.40;99.90
7002;DHT22;3541;53.230;10.518;2024-01-15T09:50:05;1.50;99.90
7002;DHT22;3541;53.230;10.518;2024-01-15T09:52:31;1.50;99.90
7002;DHT22;3541;53.230;10.518;2024-01-15T09:55:02;1.50;99.90
7002;DHT22;3541;53.230;10.518;2024-01-15T09:57:31;1.50;99.90
7002;DHT22;3541;53.230;10.518;2024-01-15T09:59:59;1.50;99.90
7002;DHT22;3541;53.230;10.518;2024-01-15T10:02:29;1.60;99.90
7002;DHT22;3541;53.230;10.518;2024-01-15T10:04:55;1.60;99.90
7002;DHT22;3541;53.230;10.518;2024-01-15T10:07:25;1.60;99.90
7002;DHT22;3541;53.230;10.518;2024-01-15T10:09:53;1.60;99.90
7002;DHT22;3541;53.230;10.518;2024-01-15T10:12:21;1.70;99.90
7002;DHT22;3541;53.230;10.518;2024-01-15T10:14:48;1.70;99.90
7002;DHT22;3541;53.230;10.518;2024-01-15T10:17:15;1.80;99.90
7002;DHT22;3541;53.230;10.518;2024-01-15T10:19:42;1.90;99.90
7002;DHT22;3541;53.230;10.518;2024-01-15T10:22:09;1.80;99.90
7002;DHT22;3541;53.230;10.518;2024-01-15T10:24:37;1.80;99.90
7002;DHT22;3541;53.230;10.518;2024-01-15T10:27:05;1.80;99.90
7002;DHT22;3541;53.230;10.518;2024-01-15T10:29:33;1.80;99.90
7002;DHT22;3541;53.230;10.518;2024-01-15T10:31:59;1.70;99.90
7002;DHT22;3541;53.230;10.518;2024-01-15T10:34:27;1.60;99.90
7002;DHT22;3541;53.230;10.518;2024-01-15T10:36:54;1.70;99.90
7002;DHT22;3541;53.230;10.518;2024-01-15T10:39:21;1.70;99.90
7002;DHT22;3541;53.230;10.518;2024-01-15T10:41:50;1.70;99.90
7002;DHT22;3541;53.230;10.518;2024-01-15T10:44:16;1.60;99.90
7002;DHT22;3541;53.230;10.518;2024-01-15T10:46:44;1.60;99.90
7002;DHT22;3541;53.230;10.518;2024-01-15T10:49:11;1.60;99.90
7002;DHT22;3541;53.230;10.518;2024-01-15T10:51:38;1.70;99.90
7002;DHT22;3541;53.230;10.518;2024-01-15T10:54:05;1.70;99.90
7002;DHT22;3541;53.230;10.518;2024-01-15T10:56:37;1.70;99.90
7002;DHT22;3541;53.230;10.518;2024-01-15T10:59:05;1.70;99.90
7002;DHT22;3541;53.230;10.518;2024-01-15T11:01:33;1.70;99.90
7002;DHT22;3541;53.230;10.518;2024-01-15T11:04:00;1.70;99.90
7002;DHT22;3541;53.230;10.518;2024-01-15T11:06:28;1.70;99.90
7002;DHT22;3541;53.230;10.518;2024-01-15T11:08:55;1.60;99.90
7002;DHT22;3541;53.230;10.518;2024-01-15T11:11:22;1.60;99.90
7002;DHT22;3541;53.230;10.518;2024-01-15T11:13:48;1.60;99.90
7002;DHT22;3541;53.230;10.518;2024-01-15T11:16:18;1.50;99.90
7002;DHT22;3541;53.230;10.518;2024-01-15T11:19:02;1.40;99.90
7002;DHT22;3541;53.230;10.518;2024-01-15T11:21:31;1.40;99.90
7002;DHT22;3541;53.230;10.518;2024-01-15T11:23:59;1.40;99.90
7002;DHT22;3541;53.230;10.518;2024-01-15T11:26:30;1.40;99.90
7002;DHT22;3541;53.230;10.518;2024-01-15T11:28:57;1.50;99.90
7002;DHT22;3541;53.230;10.518;2024-01-15T11:31:28;1.40;99.90
7002;DHT22;3541;53.230;10.518;2024-01-15T11:33:55;1.40;99.90
7002;DHT22;3541;53.230;10.518;2024-01-15T11:36:21;1.40;99.90
7002;DHT22;3541;53.230;10.518;2024-01-15T11:38:48;1.40;99.90
7002;DHT22;3541;53.230;10.518;2024-01-15T11:41:15;1.40;99.90
7002;DHT22;3541;53.230;10.518;2024-01-15T11:43:41;1.30;99.90
7002;DHT22;3541;53.230;10.518;2024-01-15T11:46:11;1.30;99.90
7002;DHT22;3541;53.230;10.518;2024-01-15T11:48:43;1.30;99.90
7002;DHT22;3541;53.230;10.518;2024-01-15T11:51:11;1.20;99.90
7002;DHT22;3541;53.230;10.518;2024-01-15T11:53:43;1.20;99.90
7002;DHT22;3541;53.230;10.518;2024-01-15T11:56:14;1.20;99.90
7002;DHT22;3541;53.230;10.518;2024-01-15T11:58:42;1.30;99.90
7002;DHT22;3541;53.230;10.518;2024-01-15T12:01:10;1.20;99.90
7002;DHT22;3541;53.230;10.518;2024-01-15T12:03:37;1.30;99.90
7002;DHT22;3541;53.230;10.518;2024-01-15T12:06:06;1.40;99.90
7002;DHT22;3541;53.230;10.518;2024-01-15T12:08:33;1.40;99.90
7002;DHT22;3541;53.230;10.518;2024-01-15T12:11:00;1.30;99.90
7002;DHT22;3541;53.230;10.518;2024-01-15T12:13:27;1.30;99.90
7002;DHT22;3541;53.230;10.518;2024-01-15T12:15:54;1.20;99.90
7002;DHT22;3541;53.230;10.518;2024-01-15T12:18:21;1.20;99.90
7002;DHT22;3541;53.230;10.518;2024-01-15T12:20:47;1.20;99.90
7002;DHT22;3541;53.230;10.518;2024-01-15T12:23:15;1.30;99.90
7002;DHT22;3541;53.230;10.518;2024-01-15T12:25:43;1.30;99.90
7002;DHT22;3541;53.230;10.518;2024-01-15T12:28:09;1.30;99.90
7002;DHT22;3541;53.230;10.518;2024-01-15T12:30:36;1.30;99.90
7002;DHT22;3541;53.230;10.518;2024-01-15T12:33:04;1.40;99.90
7002;DHT22;3541;53.230;10.518;2024-01-15T12:35:30;1.40;99.90
7002;DHT22;3541;53.230;10.518;2024-01-15T12:37:57;1.30;99.90
7002;DHT22;3541;53.230;10.518;2024-01-15T12:40:27;1.30;99.90
7002;DHT22;3541;53.230;10.518;2024-01-15T12:42:54;1.20;99.90
7002;DHT22;3541;53.230;10.518;2024-01-15T12:45:21;1.30;99.90
7002;DHT22;3541;53.230;10.518;2024-01-15T12:47:47;1.30;99.90
7002;DHT22;3541;53.230;10.518;2024-01-15T12:50:15;1.40;99.90
7002;DHT22;3541;53.230;10.518;2024-01-15T12:52:42;1.40;99.90
7002;DHT22;3541;53.230;10.518;2024-01-15T12:55:09;1.40;99.90
7002;DHT22;3541;53.230;10.518;2024-01-15T12:57:37;1.40;99.90
7002;DHT22;3541;53.230;10.518;2024-01-15T13:00:05;1.40;99.90
7002;DHT22;3541;53.230;10.518;2024-01-15T13:02:33;1.40;99.90
7002;DHT22;3541;53.230;10.518;2024-01-15T13:05:00;1.50;99.90
7002;DHT22;3541;53.230;10.518;2024-01-15T13:07:27;1.50;99.90
7002;DHT22;3541;53.230;10.518;2024-01-15T13:09:54;1.40;99.90
7002;DHT22;3541;53.230;10.518;2024-01-15T13:12:20;1.30;99.90
7002;DHT22;3541;53.230;10.518;2024-01-15T13:14:49;1.30;99.90
7002;DHT22;3541;53.230;10.518;2024-01-15T13:17:15;1.30;99.90
7002;DHT22;3541;53.230;10.518;2024-01-15T13:19:42;1.40;99.90
7002;DHT22;3541;53.230;10.518;2024-01-15T13:22:08;1.40;99.90
7002;DHT22;3541;53.230;10.518;2024-01-15T13:24:35;1.40;99.90
7002;DHT22;3541;53.230;10.518;2024-01-15T13:27:02;1.40;99.90
7002;DHT22;3541;53.230;10.518;2024-01-15T13:29:29;1.50;99.90
7002;DHT22;3541;53.230;10.518;2024-01-15T13:31:58;1.40;99.90
7002;DHT22;3541;53.230;10.518;2024-01-15T13:34:24;1.40;99.90
7002;DHT22;3541;53.230;10.518;2024-01-15T13:36:51;1.40;99.90
7002;DHT22;3541;53.230;10.518;2024-01-15T13:39:18;1.40;99.90
7002;DHT22;3541;53.230;10.518;2024-01-15T13:41:46;1.40;99.90
7002;DHT22;3541;53.230;10.518;2024-01-15T13:44:12;1.50;99.90
7002;DHT22;3541;53.230;10.518;2024-01-15T13:46:39;1.50;99.90
7002;DHT22;3541;53.230;10.518;2024-01-15T13:49:07;1.50;99.90
7002;DHT22;3541;53.230;10.518;2024-01-15T13:51:34;1.50;99.90
7002;DHT22;3541;53.230;10.518;2024-01-15T13:54:02;1.50;99.90
7002;DHT22;3541;53.230;10.518;2024-01-15T13:56:30;1.50;99.90
7002;DHT22;3541;53.230;10.518;2024-01-15T13:58:57;1.50;99.90
7002;DHT22;3541;53.230;10.518;2024-01-15T14:01:25;1.50;99.90
7002;DHT22;3541;53.230;10.518;2024-01-15T14:03:52;1.50;99.90
7002;DHT22;3541;53.230;10.518;2024-01-15T14:06:20;1.50;99.90
7002;DHT22;3541;53.230;10.518;2024-01-15T14:08:46;1.50;99.90
7002;DHT22;3541;53.230;10.518;2024-01-15T14:11:13;1.50;99.90
7002;DHT22;3541;53.230;10.518;2024-01-15T14:13:40;1.50;99.90
7002;DHT22;3541;53.230;10.518;2024-01-15T14:16:06;1.50;99.90
7002;DHT22;3541;53.230;10.518;2024-01-15T14:18:33;1.50;99.90
7002;DHT22;3541;53.230;10.518;2024-01-15T14:20:59;1.50;99.90
7002;DHT22;3541;53.230;10.518;2024-01-15T14:23:27;1.50;99.90
7002;DHT22;3541;53.230;10.518;2024-01-15T14:25:54;1.60;99.90
7002;DHT22;3541;53.230;10.518;2024-01-15T14:28:20;1.50;99.90
7002;DHT22;3541;53.230;10.518;2024-01-15T14:30:48;1.50;99.90
7002;DHT22;3541;53.230;10.518;2024-01-15T14:33:15;1.40;99.90
7002;DHT22;3541;53.230;10.518;2024-01-15T14:35:41;1.40;99.90
7002;DHT22;3541;53.230;10.518;2024-01-15T14:38:08;1.50;99.90
7002;DHT22;3541;53.230;10.518;2024-01-15T14:40:36;1.50;99.90
7002;DHT22;3541;53.230;10.518;2024-01-15T14:43:03;1.50;99.90
7002;DHT22;3541;53.230;10.518;2024-01-15T14:45:29;1.50;99.90
7002;DHT22;3541;53.230;10.518;2024-01-15T14:47:56;1.40;99.90
7002;DHT22;3541;53.230;10.518;2024-01-15T14:50:23;1.50;99.90
7002;DHT22;3541;53.230;10.518;2024-01-15T14:52:50;1.40;99.90
7002;DHT22;3541;53.230;10.518;2024-01-15T14:55:16;1.40;99.90
7002;DHT22;3541;53.230;10.518;2024-01-15T14:57:44;1.40;99.90
7002;DHT22;3541;53.230;10.518;2024-01-15T15:00:11;1.40;99.90
7002;DHT22;3541;53.230;10.518;2024-01-15T15:02:39;1.40;99.90
7002;DHT22;3541;53.230;10.518;2024-01-15T15:05:06;1.30;99.90
7002;DHT22;3541;53.230;10.518;2024-01-15T15:07:33;1.40;99.90
7002;DHT22;3541;53.230;10.518;2024-01-15T15:10:01;1.30;99.90
7002;DHT22;3541;53.230;10.518;2024-01-15T15:12:29;1.40;99.90
7002;DHT22;3541;53.230;10.518;2024-01-15T15:14:57;1.40;99.90
7002;DHT22;3541;53.230;10.518;2024-01-15T15:17:24;1.40;99.90
7002;DHT22;3541;53.230;10.518;2024-01-15T15:19:51;1.30;99.90
7002;DHT22;3541;53.230;10.518;2024-01-15T15:22:19;1.30;99.90
7002;DHT22;3541;53.230;10.518;2024-01-15T15:24:46;1.40;99.90
7002;DHT22;3541;53.230;10.518;2024-01-15T15:27:13;1.40;99.90
7002;DHT22;3541;53.230;10.518;2024-01-15T15:29:39;1.40;99.90
7002;DHT22;3541;53.230;10.518;2024-01-15T15:32:07;1.30;99.90
7002;DHT22;3541;53.230;10.518;2024-01-15T15:34:34;1.30;99.90
7002;DHT22;3541;53.230;10.518;2024-01-15T15:37:00;1.30;99.90
7002;DHT22;3541;53.230;10.518;2024-01-15T15:39:27;1.30;99.90
7002;DHT22;3541;53.230;10.518;2024-01-15T15:41:54;1.30;99.90
7002;DHT22;3541;53.230;10.518;2024-01-15T15:44:20;1.30;99.90
7002;DHT22;3541;53.230;10.518;2024-01-15T15:46:47;1.30;99.90
7002;DHT22;3541;53.230;10.518;2024-01-15T15:49:15;1.30;99.90
7002;DHT22;3541;53.230;10.518;2024-01-15T15:51:42;1.30;99.90
7002;DHT22;3541;53.230;10.518;2024-01-15T15:54:09;1.30;99.90
7002;DHT22;3541;53.230;10.518;2024-01-15T15:56:36;1.20;99.90
7002;DHT22;3541;53.230;10.518;2024-01-15T15:59:04;1.30;99.90
7002;DHT22;3541;53.230;10.518;2024-01-15T16:01:31;1.30;99.90